sensor_id;sensor_type;location;lat;lon;timestamp;P1;durP1;ratioP1;P2;durP2;ratioP2
56405;SDS011;42305;51.444;-2.584;2022-09-09T00:04:37;2.78;;;2.78;;
56405;SDS011;42305;51.444;-2.584;2022-09-09T00:07:05;2.97;;;2.97;;
56405;SDS011;42305;51.444;-2.584;2022-09-09T00:09:55;2.80;;;2.80;;
56405;SDS011;42305;51.444;-2.584;2022-09-09T00:12:39;3.10;;;3.10;;
56405;SDS011;42305;51.444;-2.584;2022-09-09T00:25:24;2.72;;;2.72;;
56405;SDS011;42305;51.444;-2.584;2022-09-09T00:30:23;2.80;;;2.80;;
56405;SDS011;42305;51.444;-2.584;2022-09-09T00:32:50;2.92;;;2.92;;
56405;SDS011;42305;51.444;-2.584;2022-09-09T00:40:35;3.00;;;3.00;;
56405;SDS011;42305;51.444;-2.584;2022-09-09T00:46:26;2.85;;;2.85;;
56405;SDS011;42305;51.444;-2.584;2022-09-09T00:54:40;2.30;;;2.30;;
56405;SDS011;42305;51.444;-2.584;2022-09-09T00:57:25;2.85;;;2.85;;
56405;SDS011;42305;51.444;-2.584;2022-09-09T01:05:12;2.50;;;2.50;;
56405;SDS011;42305;51.444;-2.584;2022-09-09T01:07:42;3.00;;;3.00;;
56405;SDS011;42305;51.444;-2.584;2022-09-09T01:10:13;3.10;;;3.10;;
56405;SDS011;42305;51.444;-2.584;2022-09-09T01:12:43;3.20;;;3.20;;
56405;SDS011;42305;51.444;-2.584;2022-09-09T01:15:22;3.20;;;3.20;;
56405;SDS011;42305;51.444;-2.584;2022-09-09T01:18:10;3.20;;;3.20;;
56405;SDS011;42305;51.444;-2.584;2022-09-09T01:20:43;3.15;;;3.15;;
56405;SDS011;42305;51.444;-2.584;2022-09-09T01:23:17;2.90;;;2.90;;
56405;SDS011;42305;51.444;-2.584;2022-09-09T01:26:04;3.08;;;3.08;;
56405;SDS011;42305;51.444;-2.584;2022-09-09T01:28:35;3.10;;;3.10;;
56405;SDS011;42305;51.444;-2.584;2022-09-09T01:31:02;2.92;;;2.92;;
56405;SDS011;42305;51.444;-2.584;2022-09-09T01:33:29;3.13;;;3.13;;
56405;SDS011;42305;51.444;-2.584;2022-09-09T01:36:03;3.00;;;3.00;;
56405;SDS011;42305;51.444;-2.584;2022-09-09T01:38:33;3.00;;;3.00;;
56405;SDS011;42305;51.444;-2.584;2022-09-09T01:41:00;3.17;;;3.17;;
56405;SDS011;42305;51.444;-2.584;2022-09-09T01:43:26;3.22;;;3.22;;
56405;SDS011;42305;51.444;-2.584;2022-09-09T01:45:54;3.20;;;3.20;;
56405;SDS011;42305;51.444;-2.584;2022-09-09T01:48:22;3.00;;;3.00;;
56405;SDS011;42305;51.444;-2.584;2022-09-09T01:50:49;2.88;;;2.88;;
56405;SDS011;42305;51.444;-2.584;2022-09-09T01:53:15;3.50;;;3.40;;
56405;SDS011;42305;51.444;-2.584;2022-09-09T01:55:44;3.60;;;3.50;;
56405;SDS011;42305;51.444;-2.584;2022-09-09T01:58:28;3.20;;;3.20;;
56405;SDS011;42305;51.444;-2.584;2022-09-09T02:03:29;3.03;;;3.03;;
56405;SDS011;42305;51.444;-2.584;2022-09-09T02:08:50;3.22;;;3.22;;
56405;SDS011;42305;51.444;-2.584;2022-09-09T02:11:18;2.97;;;2.97;;
56405;SDS011;42305;51.444;-2.584;2022-09-09T02:13:45;3.28;;;3.28;;
56405;SDS011;42305;51.444;-2.584;2022-09-09T02:21:26;3.08;;;3.08;;
56405;SDS011;42305;51.444;-2.584;2022-09-09T02:23:53;3.20;;;3.20;;
56405;SDS011;42305;51.444;-2.584;2022-09-09T02:26:21;3.13;;;3.13;;
56405;SDS011;42305;51.444;-2.584;2022-09-09T02:28:49;3.00;;;3.00;;
56405;SDS011;42305;51.444;-2.584;2022-09-09T02:31:17;3.00;;;3.00;;
56405;SDS011;42305;51.444;-2.584;2022-09-09T02:33:44;2.90;;;2.90;;
56405;SDS011;42305;51.444;-2.584;2022-09-09T02:36:12;3.00;;;3.00;;
56405;SDS011;42305;51.444;-2.584;2022-09-09T02:41:28;2.83;;;2.83;;
56405;SDS011;42305;51.444;-2.584;2022-09-09T02:43:56;2.80;;;2.80;;
56405;SDS011;42305;51.444;-2.584;2022-09-09T02:52:00;3.10;;;3.10;;
56405;SDS011;42305;51.444;-2.584;2022-09-09T02:54:28;3.10;;;3.10;;
56405;SDS011;42305;51.444;-2.584;2022-09-09T02:57:06;2.90;;;2.90;;
56405;SDS011;42305;51.444;-2.584;2022-09-09T02:59:35;2.85;;;2.85;;
56405;SDS011;42305;51.444;-2.584;2022-09-09T03:02:01;3.00;;;3.00;;
56405;SDS011;42305;51.444;-2.584;2022-09-09T03:04:28;3.00;;;3.00;;
56405;SDS011;42305;51.444;-2.584;2022-09-09T03:06:58;2.90;;;2.90;;
56405;SDS011;42305;51.444;-2.584;2022-09-09T03:09:24;3.60;;;3.50;;
56405;SDS011;42305;51.444;-2.584;2022-09-09T03:11:51;3.20;;;3.20;;
56405;SDS011;42305;51.444;-2.584;2022-09-09T03:14:17;3.00;;;3.00;;
56405;SDS011;42305;51.444;-2.584;2022-09-09T03:16:46;2.90;;;2.90;;
56405;SDS011;42305;51.444;-2.584;2022-09-09T03:19:13;3.40;;;3.30;;
56405;SDS011;42305;51.444;-2.584;2022-09-09T03:21:39;2.97;;;2.97;;
56405;SDS011;42305;51.444;-2.584;2022-09-09T03:24:05;3.17;;;3.17;;
56405;SDS011;42305;51.444;-2.584;2022-09-09T03:26:31;3.03;;;3.03;;
56405;SDS011;42305;51.444;-2.584;2022-09-09T03:29:00;3.20;;;3.20;;
56405;SDS011;42305;51.444;-2.584;2022-09-09T03:31:26;3.10;;;3.10;;
56405;SDS011;42305;51.444;-2.584;2022-09-09T03:33:55;3.10;;;3.10;;
56405;SDS011;42305;51.444;-2.584;2022-09-09T03:36:21;3.20;;;3.20;;
56405;SDS011;42305;51.444;-2.584;2022-09-09T03:38:48;3.05;;;3.05;;
56405;SDS011;42305;51.444;-2.584;2022-09-09T03:41:15;3.08;;;3.08;;
56405;SDS011;42305;51.444;-2.584;2022-09-09T03:43:42;3.53;;;3.42;;
56405;SDS011;42305;51.444;-2.584;2022-09-09T03:46:08;3.00;;;3.00;;
56405;SDS011;42305;51.444;-2.584;2022-09-09T03:48:36;3.00;;;3.00;;
56405;SDS011;42305;51.444;-2.584;2022-09-09T03:51:02;3.15;;;3.15;;
56405;SDS011;42305;51.444;-2.584;2022-09-09T03:53:28;2.88;;;2.88;;
56405;SDS011;42305;51.444;-2.584;2022-09-09T03:55:55;2.95;;;2.95;;
56405;SDS011;42305;51.444;-2.584;2022-09-09T04:01:10;3.30;;;3.00;;
56405;SDS011;42305;51.444;-2.584;2022-09-09T04:03:39;3.60;;;3.50;;
56405;SDS011;42305;51.444;-2.584;2022-09-09T04:06:06;3.85;;;3.75;;
56405;SDS011;42305;51.444;-2.584;2022-09-09T04:11:20;2.92;;;2.92;;
56405;SDS011;42305;51.444;-2.584;2022-09-09T04:13:47;3.40;;;3.30;;
56405;SDS011;42305;51.444;-2.584;2022-09-09T04:16:14;3.10;;;3.10;;
56405;SDS011;42305;51.444;-2.584;2022-09-09T04:18:42;3.10;;;3.10;;
56405;SDS011;42305;51.444;-2.584;2022-09-09T04:21:09;3.00;;;3.00;;
56405;SDS011;42305;51.444;-2.584;2022-09-09T04:23:35;3.17;;;3.17;;
56405;SDS011;42305;51.444;-2.584;2022-09-09T04:26:02;3.00;;;3.00;;
56405;SDS011;42305;51.444;-2.584;2022-09-09T04:30:58;3.53;;;3.42;;
56405;SDS011;42305;51.444;-2.584;2022-09-09T04:33:29;4.05;;;3.85;;
56405;SDS011;42305;51.444;-2.584;2022-09-09T04:35:56;3.17;;;3.10;;
56405;SDS011;42305;51.444;-2.584;2022-09-09T04:41:09;2.90;;;2.90;;
56405;SDS011;42305;51.444;-2.584;2022-09-09T04:43:36;3.10;;;3.10;;
56405;SDS011;42305;51.444;-2.584;2022-09-09T04:46:02;3.28;;;3.28;;
56405;SDS011;42305;51.444;-2.584;2022-09-09T04:48:30;3.20;;;3.20;;
56405;SDS011;42305;51.444;-2.584;2022-09-09T04:50:57;2.92;;;2.92;;
56405;SDS011;42305;51.444;-2.584;2022-09-09T04:53:23;2.88;;;2.88;;
56405;SDS011;42305;51.444;-2.584;2022-09-09T04:55:50;3.30;;;3.30;;
56405;SDS011;42305;51.444;-2.584;2022-09-09T04:58:17;2.92;;;2.92;;
56405;SDS011;42305;51.444;-2.584;2022-09-09T05:00:43;3.00;;;3.00;;
56405;SDS011;42305;51.444;-2.584;2022-09-09T05:03:09;3.10;;;3.10;;
56405;SDS011;42305;51.444;-2.584;2022-09-09T05:05:36;3.40;;;3.30;;
56405;SDS011;42305;51.444;-2.584;2022-09-09T05:10:47;3.28;;;3.22;;
56405;SDS011;42305;51.444;-2.584;2022-09-09T05:13:13;3.10;;;3.10;;
56405;SDS011;42305;51.444;-2.584;2022-09-09T05:15:39;2.90;;;2.90;;
56405;SDS011;42305;51.444;-2.584;2022-09-09T05:18:09;3.45;;;3.35;;
56405;SDS011;42305;51.444;-2.584;2022-09-09T05:20:35;3.20;;;3.20;;
56405;SDS011;42305;51.444;-2.584;2022-09-09T05:23:01;2.80;;;2.80;;
56405;SDS011;42305;51.444;-2.584;2022-09-09T05:25:27;5.55;;;4.65;;
56405;SDS011;42305;51.444;-2.584;2022-09-09T05:27:55;3.08;;;3.08;;
56405;SDS011;42305;51.444;-2.584;2022-09-09T05:30:21;3.38;;;3.13;;
56405;SDS011;42305;51.444;-2.584;2022-09-09T05:32:51;2.67;;;2.67;;
56405;SDS011;42305;51.444;-2.584;2022-09-09T05:35:17;2.95;;;2.95;;
56405;SDS011;42305;51.444;-2.584;2022-09-09T05:37:46;3.20;;;3.20;;
56405;SDS011;42305;51.444;-2.584;2022-09-09T05:40:12;3.00;;;3.00;;
56405;SDS011;42305;51.444;-2.584;2022-09-09T05:42:39;3.00;;;3.00;;
56405;SDS011;42305;51.444;-2.584;2022-09-09T05:45:06;3.00;;;3.00;;
56405;SDS011;42305;51.444;-2.584;2022-09-09T05:47:34;3.20;;;3.20;;
56405;SDS011;42305;51.444;-2.584;2022-09-09T05:50:00;2.90;;;2.90;;
56405;SDS011;42305;51.444;-2.584;2022-09-09T05:52:26;3.10;;;3.10;;
56405;SDS011;42305;51.444;-2.584;2022-09-09T05:54:53;3.10;;;3.10;;
56405;SDS011;42305;51.444;-2.584;2022-09-09T05:57:22;3.10;;;3.10;;
56405;SDS011;42305;51.444;-2.584;2022-09-09T05:59:48;3.10;;;3.10;;
56405;SDS011;42305;51.444;-2.584;2022-09-09T06:02:14;3.08;;;3.08;;
56405;SDS011;42305;51.444;-2.584;2022-09-09T06:04:41;3.20;;;3.20;;
56405;SDS011;42305;51.444;-2.584;2022-09-09T06:10:11;2.88;;;2.88;;
56405;SDS011;42305;51.444;-2.584;2022-09-09T06:12:40;3.28;;;3.20;;
56405;SDS011;42305;51.444;-2.584;2022-09-09T06:15:06;3.05;;;3.05;;
56405;SDS011;42305;51.444;-2.584;2022-09-09T06:20:37;2.90;;;2.90;;
56405;SDS011;42305;51.444;-2.584;2022-09-09T06:23:03;2.90;;;2.90;;
56405;SDS011;42305;51.444;-2.584;2022-09-09T06:25:29;2.97;;;2.97;;
56405;SDS011;42305;51.444;-2.584;2022-09-09T06:27:55;2.97;;;2.97;;
56405;SDS011;42305;51.444;-2.584;2022-09-09T06:30:21;2.88;;;2.88;;
56405;SDS011;42305;51.444;-2.584;2022-09-09T06:32:47;3.00;;;3.00;;
56405;SDS011;42305;51.444;-2.584;2022-09-09T06:35:14;3.40;;;3.30;;
56405;SDS011;42305;51.444;-2.584;2022-09-09T06:37:45;2.80;;;2.80;;
56405;SDS011;42305;51.444;-2.584;2022-09-09T06:40:13;6.57;;;6.15;;
56405;SDS011;42305;51.444;-2.584;2022-09-09T06:42:40;2.60;;;2.60;;
56405;SDS011;42305;51.444;-2.584;2022-09-09T06:45:06;2.92;;;2.92;;
56405;SDS011;42305;51.444;-2.584;2022-09-09T06:47:34;3.00;;;3.00;;
56405;SDS011;42305;51.444;-2.584;2022-09-09T06:50:00;2.67;;;2.67;;
56405;SDS011;42305;51.444;-2.584;2022-09-09T06:52:26;2.90;;;2.90;;
56405;SDS011;42305;51.444;-2.584;2022-09-09T06:54:53;2.90;;;2.90;;
56405;SDS011;42305;51.444;-2.584;2022-09-09T07:00:23;2.80;;;2.80;;
56405;SDS011;42305;51.444;-2.584;2022-09-09T07:02:50;2.55;;;2.55;;
56405;SDS011;42305;51.444;-2.584;2022-09-09T07:05:16;2.53;;;2.53;;
56405;SDS011;42305;51.444;-2.584;2022-09-09T07:07:42;2.80;;;2.80;;
56405;SDS011;42305;51.444;-2.584;2022-09-09T07:10:08;2.65;;;2.65;;
56405;SDS011;42305;51.444;-2.584;2022-09-09T07:12:34;2.70;;;2.70;;
56405;SDS011;42305;51.444;-2.584;2022-09-09T07:15:00;2.72;;;2.72;;
56405;SDS011;42305;51.444;-2.584;2022-09-09T07:20:31;2.80;;;2.80;;
56405;SDS011;42305;51.444;-2.584;2022-09-09T07:22:57;3.00;;;3.00;;
56405;SDS011;42305;51.444;-2.584;2022-09-09T07:25:24;2.83;;;2.83;;
56405;SDS011;42305;51.444;-2.584;2022-09-09T07:33:49;2.72;;;2.72;;
56405;SDS011;42305;51.444;-2.584;2022-09-09T07:36:16;2.75;;;2.75;;
56405;SDS011;42305;51.444;-2.584;2022-09-09T07:38:46;2.78;;;2.78;;
56405;SDS011;42305;51.444;-2.584;2022-09-09T07:41:14;2.63;;;2.63;;
56405;SDS011;42305;51.444;-2.584;2022-09-09T07:43:42;2.80;;;2.80;;
56405;SDS011;42305;51.444;-2.584;2022-09-09T07:46:09;2.90;;;2.90;;
56405;SDS011;42305;51.444;-2.584;2022-09-09T07:48:37;2.70;;;2.70;;
56405;SDS011;42305;51.444;-2.584;2022-09-09T07:51:13;3.10;;;3.10;;
56405;SDS011;42305;51.444;-2.584;2022-09-09T07:53:43;2.55;;;2.55;;
56405;SDS011;42305;51.444;-2.584;2022-09-09T07:56:10;2.60;;;2.60;;
56405;SDS011;42305;51.444;-2.584;2022-09-09T07:58:37;2.95;;;2.95;;
56405;SDS011;42305;51.444;-2.584;2022-09-09T08:01:07;3.38;;;3.28;;
56405;SDS011;42305;51.444;-2.584;2022-09-09T08:03:34;3.58;;;3.38;;
56405;SDS011;42305;51.444;-2.584;2022-09-09T08:06:00;2.88;;;2.78;;
56405;SDS011;42305;51.444;-2.584;2022-09-09T08:11:30;3.05;;;3.05;;
56405;SDS011;42305;51.444;-2.584;2022-09-09T08:13:58;2.90;;;2.90;;
56405;SDS011;42305;51.444;-2.584;2022-09-09T08:16:26;2.38;;;2.38;;
56405;SDS011;42305;51.444;-2.584;2022-09-09T08:18:52;2.40;;;2.40;;
56405;SDS011;42305;51.444;-2.584;2022-09-09T08:21:26;3.63;;;3.45;;
56405;SDS011;42305;51.444;-2.584;2022-09-09T08:23:53;2.50;;;2.50;;
56405;SDS011;42305;51.444;-2.584;2022-09-09T08:26:20;3.17;;;3.08;;
56405;SDS011;42305;51.444;-2.584;2022-09-09T08:31:52;2.47;;;2.47;;
56405;SDS011;42305;51.444;-2.584;2022-09-09T08:34:19;2.40;;;2.40;;
56405;SDS011;42305;51.444;-2.584;2022-09-09T08:36:47;2.45;;;2.45;;
56405;SDS011;42305;51.444;-2.584;2022-09-09T08:39:14;2.45;;;2.45;;
56405;SDS011;42305;51.444;-2.584;2022-09-09T08:50:07;2.63;;;2.63;;
56405;SDS011;42305;51.444;-2.584;2022-09-09T09:00:22;2.42;;;2.42;;
56405;SDS011;42305;51.444;-2.584;2022-09-09T09:05:40;2.90;;;2.80;;
56405;SDS011;42305;51.444;-2.584;2022-09-09T09:10:45;2.53;;;2.53;;
56405;SDS011;42305;51.444;-2.584;2022-09-09T09:13:17;3.10;;;2.95;;
56405;SDS011;42305;51.444;-2.584;2022-09-09T09:15:46;3.15;;;2.80;;
56405;SDS011;42305;51.444;-2.584;2022-09-09T09:18:19;2.55;;;2.55;;
56405;SDS011;42305;51.444;-2.584;2022-09-09T09:20:50;3.03;;;3.00;;
56405;SDS011;42305;51.444;-2.584;2022-09-09T09:23:23;3.88;;;3.78;;
56405;SDS011;42305;51.444;-2.584;2022-09-09T09:25:50;2.85;;;2.83;;
56405;SDS011;42305;51.444;-2.584;2022-09-09T09:28:18;3.22;;;3.13;;
56405;SDS011;42305;51.444;-2.584;2022-09-09T09:30:53;2.60;;;2.60;;
56405;SDS011;42305;51.444;-2.584;2022-09-09T09:33:27;2.28;;;2.28;;
56405;SDS011;42305;51.444;-2.584;2022-09-09T09:35:54;2.60;;;2.60;;
56405;SDS011;42305;51.444;-2.584;2022-09-09T09:38:22;2.38;;;2.38;;
56405;SDS011;42305;51.444;-2.584;2022-09-09T09:40:52;2.70;;;2.70;;
56405;SDS011;42305;51.444;-2.584;2022-09-09T09:43:33;2.78;;;2.78;;
56405;SDS011;42305;51.444;-2.584;2022-09-09T09:45:59;2.70;;;2.70;;
56405;SDS011;42305;51.444;-2.584;2022-09-09T09:48:26;2.53;;;2.53;;
56405;SDS011;42305;51.444;-2.584;2022-09-09T09:50:57;2.50;;;2.50;;
56405;SDS011;42305;51.444;-2.584;2022-09-09T09:53:26;2.65;;;2.65;;
56405;SDS011;42305;51.444;-2.584;2022-09-09T09:55:56;2.50;;;2.50;;
56405;SDS011;42305;51.444;-2.584;2022-09-09T09:58:23;2.10;;;2.10;;
56405;SDS011;42305;51.444;-2.584;2022-09-09T10:00:51;2.50;;;2.50;;
56405;SDS011;42305;51.444;-2.584;2022-09-09T10:03:22;2.20;;;2.20;;
56405;SDS011;42305;51.444;-2.584;2022-09-09T10:05:49;2.35;;;2.35;;
56405;SDS011;42305;51.444;-2.584;2022-09-09T10:08:15;2.42;;;2.42;;
56405;SDS011;42305;51.444;-2.584;2022-09-09T10:10:48;2.20;;;2.20;;
56405;SDS011;42305;51.444;-2.584;2022-09-09T10:24:14;2.72;;;2.55;;
56405;SDS011;42305;51.444;-2.584;2022-09-09T10:39:58;2.33;;;2.33;;
56405;SDS011;42305;51.444;-2.584;2022-09-09T10:42:28;12.57;;;2.40;;
56405;SDS011;42305;51.444;-2.584;2022-09-09T10:55:16;2.50;;;2.50;;
56405;SDS011;42305;51.444;-2.584;2022-09-09T11:00:17;2.40;;;2.40;;
56405;SDS011;42305;51.444;-2.584;2022-09-09T11:02:43;1.90;;;1.90;;
56405;SDS011;42305;51.444;-2.584;2022-09-09T11:05:23;2.10;;;2.10;;
56405;SDS011;42305;51.444;-2.584;2022-09-09T11:07:57;2.20;;;2.20;;
56405;SDS011;42305;51.444;-2.584;2022-09-09T11:10:45;1.70;;;1.70;;
56405;SDS011;42305;51.444;-2.584;2022-09-09T11:13:35;2.17;;;2.17;;
56405;SDS011;42305;51.444;-2.584;2022-09-09T11:18:38;2.00;;;2.00;;
56405;SDS011;42305;51.444;-2.584;2022-09-09T11:21:06;2.00;;;2.00;;
56405;SDS011;42305;51.444;-2.584;2022-09-09T11:26:03;1.40;;;1.40;;
56405;SDS011;42305;51.444;-2.584;2022-09-09T11:33:55;1.90;;;1.90;;
56405;SDS011;42305;51.444;-2.584;2022-09-09T11:41:37;1.50;;;1.50;;
56405;SDS011;42305;51.444;-2.584;2022-09-09T11:44:10;1.80;;;1.80;;
56405;SDS011;42305;51.444;-2.584;2022-09-09T11:46:38;1.35;;;1.35;;
56405;SDS011;42305;51.444;-2.584;2022-09-09T11:49:05;1.55;;;1.55;;
56405;SDS011;42305;51.444;-2.584;2022-09-09T11:51:32;1.38;;;1.38;;
56405;SDS011;42305;51.444;-2.584;2022-09-09T11:54:01;1.90;;;1.90;;
56405;SDS011;42305;51.444;-2.584;2022-09-09T11:56:28;9.80;;;2.20;;
56405;SDS011;42305;51.444;-2.584;2022-09-09T11:59:06;1.90;;;1.80;;
56405;SDS011;42305;51.444;-2.584;2022-09-09T12:06:41;2.15;;;2.15;;
56405;SDS011;42305;51.444;-2.584;2022-09-09T12:09:12;1.70;;;1.70;;
56405;SDS011;42305;51.444;-2.584;2022-09-09T12:11:41;1.83;;;1.83;;
56405;SDS011;42305;51.444;-2.584;2022-09-09T12:14:20;1.70;;;1.70;;
56405;SDS011;42305;51.444;-2.584;2022-09-09T12:16:46;2.00;;;2.00;;
56405;SDS011;42305;51.444;-2.584;2022-09-09T12:19:16;2.00;;;2.00;;
56405;SDS011;42305;51.444;-2.584;2022-09-09T12:24:11;1.63;;;1.63;;
56405;SDS011;42305;51.444;-2.584;2022-09-09T12:29:26;1.75;;;1.75;;
56405;SDS011;42305;51.444;-2.584;2022-09-09T12:34:40;2.35;;;2.25;;
56405;SDS011;42305;51.444;-2.584;2022-09-09T12:39:42;1.50;;;1.50;;
56405;SDS011;42305;51.444;-2.584;2022-09-09T12:42:20;2.55;;;2.45;;
56405;SDS011;42305;51.444;-2.584;2022-09-09T12:44:53;2.20;;;2.20;;
56405;SDS011;42305;51.444;-2.584;2022-09-09T12:47:20;1.83;;;1.83;;
56405;SDS011;42305;51.444;-2.584;2022-09-09T12:49:47;2.08;;;2.08;;
56405;SDS011;42305;51.444;-2.584;2022-09-09T12:54:50;1.70;;;1.70;;
56405;SDS011;42305;51.444;-2.584;2022-09-09T12:57:17;2.20;;;2.20;;
56405;SDS011;42305;51.444;-2.584;2022-09-09T12:59:44;2.20;;;2.20;;
56405;SDS011;42305;51.444;-2.584;2022-09-09T13:02:18;20.70;;;2.85;;
56405;SDS011;42305;51.444;-2.584;2022-09-09T13:04:44;2.65;;;2.65;;
56405;SDS011;42305;51.444;-2.584;2022-09-09T13:07:12;2.17;;;2.17;;
56405;SDS011;42305;51.444;-2.584;2022-09-09T13:09:38;2.20;;;2.20;;
56405;SDS011;42305;51.444;-2.584;2022-09-09T13:12:04;2.40;;;2.40;;
56405;SDS011;42305;51.444;-2.584;2022-09-09T13:14:32;2.28;;;2.28;;
56405;SDS011;42305;51.444;-2.584;2022-09-09T13:17:02;2.00;;;2.00;;
56405;SDS011;42305;51.444;-2.584;2022-09-09T13:19:29;3.08;;;2.92;;
56405;SDS011;42305;51.444;-2.584;2022-09-09T13:21:56;2.25;;;2.25;;
56405;SDS011;42305;51.444;-2.584;2022-09-09T13:24:27;2.10;;;2.10;;
56405;SDS011;42305;51.444;-2.584;2022-09-09T13:26:58;1.60;;;1.60;;
56405;SDS011;42305;51.444;-2.584;2022-09-09T13:29:26;1.75;;;1.75;;
56405;SDS011;42305;51.444;-2.584;2022-09-09T13:31:53;1.15;;;1.15;;
56405;SDS011;42305;51.444;-2.584;2022-09-09T13:34:30;2.00;;;1.90;;
56405;SDS011;42305;51.444;-2.584;2022-09-09T13:37:04;1.08;;;1.08;;
56405;SDS011;42305;51.444;-2.584;2022-09-09T13:39:32;1.38;;;1.38;;
56405;SDS011;42305;51.444;-2.584;2022-09-09T13:41:58;0.90;;;0.90;;
56405;SDS011;42305;51.444;-2.584;2022-09-09T13:44:28;0.90;;;0.90;;
56405;SDS011;42305;51.444;-2.584;2022-09-09T13:49:27;0.98;;;0.98;;
56405;SDS011;42305;51.444;-2.584;2022-09-09T13:52:02;0.73;;;0.73;;
56405;SDS011;42305;51.444;-2.584;2022-09-09T13:54:30;1.20;;;1.20;;
56405;SDS011;42305;51.444;-2.584;2022-09-09T13:56:56;2.35;;;2.20;;
56405;SDS011;42305;51.444;-2.584;2022-09-09T13:59:22;1.20;;;1.20;;
56405;SDS011;42305;51.444;-2.584;2022-09-09T14:01:49;1.23;;;1.23;;
56405;SDS011;42305;51.444;-2.584;2022-09-09T14:04:17;1.20;;;1.20;;
56405;SDS011;42305;51.444;-2.584;2022-09-09T14:06:45;1.20;;;1.20;;
56405;SDS011;42305;51.444;-2.584;2022-09-09T14:09:13;0.90;;;0.90;;
56405;SDS011;42305;51.444;-2.584;2022-09-09T14:11:39;1.00;;;1.00;;
56405;SDS011;42305;51.444;-2.584;2022-09-09T14:14:06;1.25;;;1.25;;
56405;SDS011;42305;51.444;-2.584;2022-09-09T14:16:32;1.10;;;1.10;;
56405;SDS011;42305;51.444;-2.584;2022-09-09T14:18:58;1.77;;;1.67;;
56405;SDS011;42305;51.444;-2.584;2022-09-09T14:21:24;2.22;;;2.13;;
56405;SDS011;42305;51.444;-2.584;2022-09-09T14:23:51;1.40;;;1.40;;
56405;SDS011;42305;51.444;-2.584;2022-09-09T14:26:18;1.88;;;1.67;;
56405;SDS011;42305;51.444;-2.584;2022-09-09T14:28:45;1.40;;;1.40;;
56405;SDS011;42305;51.444;-2.584;2022-09-09T14:31:12;1.35;;;1.35;;
56405;SDS011;42305;51.444;-2.584;2022-09-09T14:33:42;3.17;;;1.70;;
56405;SDS011;42305;51.444;-2.584;2022-09-09T14:36:09;1.10;;;1.10;;
56405;SDS011;42305;51.444;-2.584;2022-09-09T14:38:35;1.50;;;1.50;;
56405;SDS011;42305;51.444;-2.584;2022-09-09T14:41:05;1.00;;;1.00;;
56405;SDS011;42305;51.444;-2.584;2022-09-09T14:43:31;0.68;;;0.68;;
56405;SDS011;42305;51.444;-2.584;2022-09-09T14:46:04;1.23;;;1.13;;
56405;SDS011;42305;51.444;-2.584;2022-09-09T14:48:30;1.02;;;1.02;;
56405;SDS011;42305;51.444;-2.584;2022-09-09T14:50:56;0.90;;;0.90;;
56405;SDS011;42305;51.444;-2.584;2022-09-09T14:53:23;1.85;;;1.75;;
56405;SDS011;42305;51.444;-2.584;2022-09-09T14:55:49;1.27;;;1.27;;
56405;SDS011;42305;51.444;-2.584;2022-09-09T14:58:15;1.38;;;1.20;;
56405;SDS011;42305;51.444;-2.584;2022-09-09T15:00:41;2.03;;;1.83;;
56405;SDS011;42305;51.444;-2.584;2022-09-09T15:03:07;0.90;;;0.90;;
56405;SDS011;42305;51.444;-2.584;2022-09-09T15:05:33;0.98;;;0.98;;
56405;SDS011;42305;51.444;-2.584;2022-09-09T15:07:59;0.93;;;0.93;;
56405;SDS011;42305;51.444;-2.584;2022-09-09T15:10:25;0.73;;;0.73;;
56405;SDS011;42305;51.444;-2.584;2022-09-09T15:12:51;0.88;;;0.88;;
56405;SDS011;42305;51.444;-2.584;2022-09-09T15:15:17;1.00;;;1.00;;
56405;SDS011;42305;51.444;-2.584;2022-09-09T15:17:43;0.90;;;0.90;;
56405;SDS011;42305;51.444;-2.584;2022-09-09T15:20:09;1.15;;;1.15;;
56405;SDS011;42305;51.444;-2.584;2022-09-09T15:22:35;0.77;;;0.77;;
56405;SDS011;42305;51.444;-2.584;2022-09-09T15:25:02;1.17;;;1.17;;
56405;SDS011;42305;51.444;-2.584;2022-09-09T15:27:29;0.65;;;0.65;;
56405;SDS011;42305;51.444;-2.584;2022-09-09T15:29:56;0.88;;;0.88;;
56405;SDS011;42305;51.444;-2.584;2022-09-09T15:32:23;0.65;;;0.65;;
56405;SDS011;42305;51.444;-2.584;2022-09-09T15:34:49;1.02;;;1.02;;
56405;SDS011;42305;51.444;-2.584;2022-09-09T15:40:03;0.60;;;0.60;;
56405;SDS011;42305;51.444;-2.584;2022-09-09T15:42:29;0.52;;;0.52;;
56405;SDS011;42305;51.444;-2.584;2022-09-09T15:44:55;0.75;;;0.75;;
56405;SDS011;42305;51.444;-2.584;2022-09-09T15:47:22;0.30;;;0.30;;
56405;SDS011;42305;51.444;-2.584;2022-09-09T15:49:47;0.73;;;0.73;;
56405;SDS011;42305;51.444;-2.584;2022-09-09T15:52:13;0.47;;;0.47;;
56405;SDS011;42305;51.444;-2.584;2022-09-09T15:54:39;0.40;;;0.40;;
56405;SDS011;42305;51.444;-2.584;2022-09-09T15:57:10;0.13;;;0.13;;
56405;SDS011;42305;51.444;-2.584;2022-09-09T15:59:37;0.20;;;0.20;;
56405;SDS011;42305;51.444;-2.584;2022-09-09T16:02:03;0.20;;;0.20;;
56405;SDS011;42305;51.444;-2.584;2022-09-09T16:04:30;1.00;;;1.00;;
56405;SDS011;42305;51.444;-2.584;2022-09-09T16:06:57;0.40;;;0.40;;
56405;SDS011;42305;51.444;-2.584;2022-09-09T16:09:24;1.10;;;1.10;;
56405;SDS011;42305;51.444;-2.584;2022-09-09T16:11:50;1.00;;;1.00;;
56405;SDS011;42305;51.444;-2.584;2022-09-09T16:14:18;0.82;;;0.82;;
56405;SDS011;42305;51.444;-2.584;2022-09-09T16:16:44;1.20;;;1.20;;
56405;SDS011;42305;51.444;-2.584;2022-09-09T16:19:11;1.33;;;1.33;;
56405;SDS011;42305;51.444;-2.584;2022-09-09T16:21:45;1.60;;;1.58;;
56405;SDS011;42305;51.444;-2.584;2022-09-09T16:24:12;1.45;;;1.45;;
56405;SDS011;42305;51.444;-2.584;2022-09-09T16:26:40;2.30;;;2.20;;
56405;SDS011;42305;51.444;-2.584;2022-09-09T16:29:07;1.42;;;1.42;;
56405;SDS011;42305;51.444;-2.584;2022-09-09T16:31:34;1.40;;;1.40;;
56405;SDS011;42305;51.444;-2.584;2022-09-09T16:34:00;1.58;;;1.58;;
56405;SDS011;42305;51.444;-2.584;2022-09-09T16:36:28;1.35;;;1.35;;
56405;SDS011;42305;51.444;-2.584;2022-09-09T16:38:57;1.33;;;1.33;;
56405;SDS011;42305;51.444;-2.584;2022-09-09T16:41:24;1.70;;;1.70;;
56405;SDS011;42305;51.444;-2.584;2022-09-09T16:43:53;1.70;;;1.70;;
56405;SDS011;42305;51.444;-2.584;2022-09-09T16:46:20;1.55;;;1.55;;
56405;SDS011;42305;51.444;-2.584;2022-09-09T16:48:47;1.40;;;1.40;;
56405;SDS011;42305;51.444;-2.584;2022-09-09T16:51:18;1.40;;;1.40;;
56405;SDS011;42305;51.444;-2.584;2022-09-09T16:53:45;2.85;;;1.38;;
56405;SDS011;42305;51.444;-2.584;2022-09-09T16:56:12;1.30;;;1.30;;
56405;SDS011;42305;51.444;-2.584;2022-09-09T16:58:39;1.60;;;1.60;;
56405;SDS011;42305;51.444;-2.584;2022-09-09T17:01:05;1.40;;;1.40;;
56405;SDS011;42305;51.444;-2.584;2022-09-09T17:03:31;1.92;;;1.92;;
56405;SDS011;42305;51.444;-2.584;2022-09-09T17:05:58;13.15;;;1.95;;
56405;SDS011;42305;51.444;-2.584;2022-09-09T17:08:28;2.00;;;2.00;;
56405;SDS011;42305;51.444;-2.584;2022-09-09T17:10:54;2.65;;;2.55;;
56405;SDS011;42305;51.444;-2.584;2022-09-09T17:13:21;2.00;;;2.00;;
56405;SDS011;42305;51.444;-2.584;2022-09-09T17:15:47;1.90;;;1.90;;
56405;SDS011;42305;51.444;-2.584;2022-09-09T17:18:13;1.60;;;1.60;;
56405;SDS011;42305;51.444;-2.584;2022-09-09T17:20:40;3.25;;;2.28;;
56405;SDS011;42305;51.444;-2.584;2022-09-09T17:23:06;2.17;;;2.17;;
56405;SDS011;42305;51.444;-2.584;2022-09-09T17:25:33;2.00;;;2.00;;
56405;SDS011;42305;51.444;-2.584;2022-09-09T17:28:01;1.45;;;1.45;;
56405;SDS011;42305;51.444;-2.584;2022-09-09T17:30:29;1.75;;;1.75;;
56405;SDS011;42305;51.444;-2.584;2022-09-09T17:32:56;2.00;;;2.00;;
56405;SDS011;42305;51.444;-2.584;2022-09-09T17:35:22;1.40;;;1.40;;
56405;SDS011;42305;51.444;-2.584;2022-09-09T17:37:48;2.08;;;2.08;;
56405;SDS011;42305;51.444;-2.584;2022-09-09T17:40:14;2.10;;;2.10;;
56405;SDS011;42305;51.444;-2.584;2022-09-09T17:42:40;2.40;;;2.40;;
56405;SDS011;42305;51.444;-2.584;2022-09-09T17:45:07;1.80;;;1.80;;
56405;SDS011;42305;51.444;-2.584;2022-09-09T17:47:33;2.05;;;2.05;;
56405;SDS011;42305;51.444;-2.584;2022-09-09T17:49:59;2.20;;;2.20;;